sensor_id;sensor_type;location;lat;lon;timestamp;pressure;altitude;pressure_sealevel;temperature;humidity
64402;BME280;50724;42.376;23.768;2023-04-28T00:02:20;93307.59;;;4.08;61.25
64402;BME280;50724;42.376;23.768;2023-04-28T00:05:21;93304.53;;;4.03;61.54
64402;BME280;50724;42.376;23.768;2023-04-28T00:08:22;93309.63;;;3.94;61.87
64402;BME280;50724;42.376;23.768;2023-04-28T00:11:26;93304.59;;;3.92;62.19
64402;BME280;50724;42.376;23.768;2023-04-28T00:14:26;93310.72;;;3.80;62.54
64402;BME280;50724;42.376;23.768;2023-04-28T00:17:27;93313.44;;;3.79;62.72
64402;BME280;50724;42.376;23.768;2023-04-28T00:20:27;93320.41;;;3.67;62.94
64402;BME280;50724;42.376;23.768;2023-04-28T00:23:27;93319.38;;;3.59;63.19
64402;BME280;50724;42.376;23.768;2023-04-28T00:26:28;93307.38;;;3.58;63.42
64402;BME280;50724;42.376;23.768;2023-04-28T00:29:28;93313.72;;;3.54;63.78
64402;BME280;50724;42.376;23.768;2023-04-28T00:32:29;93314.53;;;3.54;63.55
64402;BME280;50724;42.376;23.768;2023-04-28T00:35:29;93316.31;;;3.54;63.20
64402;BME280;50724;42.376;23.768;2023-04-28T00:38:30;93317.56;;;3.59;62.86
64402;BME280;50724;42.376;23.768;2023-04-28T00:41:30;93319.47;;;3.57;62.87
64402;BME280;50724;42.376;23.768;2023-04-28T00:44:31;93313.47;;;3.57;62.75
64402;BME280;50724;42.376;23.768;2023-04-28T00:47:32;93318.78;;;3.55;62.57
64402;BME280;50724;42.376;23.768;2023-04-28T00:50:33;93317.47;;;3.49;62.82
64402;BME280;50724;42.376;23.768;2023-04-28T00:53:34;93324.16;;;3.52;62.78
64402;BME280;50724;42.376;23.768;2023-04-28T00:56:35;93316.44;;;3.41;63.02
64402;BME280;50724;42.376;23.768;2023-04-28T00:59:35;93324.06;;;3.42;62.81
64402;BME280;50724;42.376;23.768;2023-04-28T01:02:38;93326.91;;;3.39;63.13
64402;BME280;50724;42.376;23.768;2023-04-28T01:05:39;93322.66;;;3.38;62.62
64402;BME280;50724;42.376;23.768;2023-04-28T01:08:48;93323.72;;;3.36;62.80
64402;BME280;50724;42.376;23.768;2023-04-28T01:11:50;93324.06;;;3.31;63.07
64402;BME280;50724;42.376;23.768;2023-04-28T01:14:50;93329.81;;;3.24;63.72
64402;BME280;50724;42.376;23.768;2023-04-28T01:17:51;93332.88;;;3.18;63.91
64402;BME280;50724;42.376;23.768;2023-04-28T01:20:51;93327.09;;;3.14;64.06
64402;BME280;50724;42.376;23.768;2023-04-28T01:23:52;93329.34;;;3.08;64.75
64402;BME280;50724;42.376;23.768;2023-04-28T01:27:01;93324.66;;;3.13;64.58
64402;BME280;50724;42.376;23.768;2023-04-28T01:30:02;93329.59;;;3.27;63.66
64402;BME280;50724;42.376;23.768;2023-04-28T01:33:03;93325.47;;;3.24;63.55
64402;BME280;50724;42.376;23.768;2023-04-28T01:36:03;93323.16;;;3.32;63.29
64402;BME280;50724;42.376;23.768;2023-04-28T01:39:04;93333.09;;;3.26;63.49
64402;BME280;50724;42.376;23.768;2023-04-28T01:42:05;93326.09;;;3.28;63.42
64402;BME280;50724;42.376;23.768;2023-04-28T01:45:06;93334.88;;;3.25;63.38
64402;BME280;50724;42.376;23.768;2023-04-28T01:48:06;93332.06;;;3.17;63.89
64402;BME280;50724;42.376;23.768;2023-04-28T01:51:07;93329.13;;;3.11;64.14
64402;BME280;50724;42.376;23.768;2023-04-28T01:54:07;93333.69;;;3.07;64.25
64402;BME280;50724;42.376;23.768;2023-04-28T01:57:08;93341.09;;;3.01;64.58
64402;BME280;50724;42.376;23.768;2023-04-28T02:00:09;93329.91;;;3.00;64.38
64402;BME280;50724;42.376;23.768;2023-04-28T02:03:10;93324.06;;;2.98;64.46
64402;BME280;50724;42.376;23.768;2023-04-28T02:06:10;93332.75;;;2.97;64.71
64402;BME280;50724;42.376;23.768;2023-04-28T02:09:10;93338.28;;;3.04;65.15
64402;BME280;50724;42.376;23.768;2023-04-28T02:12:11;93340.75;;;3.16;64.35
64402;BME280;50724;42.376;23.768;2023-04-28T02:15:11;93336.75;;;3.12;64.47
64402;BME280;50724;42.376;23.768;2023-04-28T02:18:12;93342.88;;;3.11;64.12
64402;BME280;50724;42.376;23.768;2023-04-28T02:21:12;93343.78;;;3.10;64.05
64402;BME280;50724;42.376;23.768;2023-04-28T02:24:12;93347.09;;;3.12;63.98
64402;BME280;50724;42.376;23.768;2023-04-28T02:27:13;93343.56;;;3.13;63.80
64402;BME280;50724;42.376;23.768;2023-04-28T02:30:13;93352.13;;;3.03;64.72
64402;BME280;50724;42.376;23.768;2023-04-28T02:33:14;93352.13;;;3.03;64.87
64402;BME280;50724;42.376;23.768;2023-04-28T02:36:14;93362.00;;;2.98;64.67
64402;BME280;50724;42.376;23.768;2023-04-28T02:39:15;93362.69;;;3.00;64.61
64402;BME280;50724;42.376;23.768;2023-04-28T02:42:15;93358.94;;;3.04;64.47
64402;BME280;50724;42.376;23.768;2023-04-28T02:45:16;93369.00;;;2.96;64.67
64402;BME280;50724;42.376;23.768;2023-04-28T02:48:16;93364.09;;;2.93;64.79
64402;BME280;50724;42.376;23.768;2023-04-28T02:51:17;93364.81;;;2.95;64.81
64402;BME280;50724;42.376;23.768;2023-04-28T02:54:17;93372.19;;;2.88;64.89
64402;BME280;50724;42.376;23.768;2023-04-28T02:57:26;93375.56;;;2.89;65.06
64402;BME280;50724;42.376;23.768;2023-04-28T03:00:36;93375.91;;;2.84;65.14
64402;BME280;50724;42.376;23.768;2023-04-28T03:03:37;93385.06;;;2.77;65.39
64402;BME280;50724;42.376;23.768;2023-04-28T03:06:37;93384.47;;;2.73;65.84
64402;BME280;50724;42.376;23.768;2023-04-28T03:09:38;93387.88;;;2.74;65.70
64402;BME280;50724;42.376;23.768;2023-04-28T03:12:38;93389.03;;;2.70;65.79
64402;BME280;50724;42.376;23.768;2023-04-28T03:15:39;93389.16;;;2.68;65.92
64402;BME280;50724;42.376;23.768;2023-04-28T03:18:39;93393.47;;;2.68;66.15
64402;BME280;50724;42.376;23.768;2023-04-28T03:21:40;93392.31;;;2.72;65.95
64402;BME280;50724;42.376;23.768;2023-04-28T03:24:40;93399.19;;;2.60;66.19
64402;BME280;50724;42.376;23.768;2023-04-28T03:27:41;93400.50;;;2.55;66.59
64402;BME280;50724;42.376;23.768;2023-04-28T03:30:41;93396.50;;;2.51;66.93
64402;BME280;50724;42.376;23.768;2023-04-28T03:33:41;93404.81;;;2.54;66.69
64402;BME280;50724;42.376;23.768;2023-04-28T03:36:44;93405.31;;;2.59;66.98
64402;BME280;50724;42.376;23.768;2023-04-28T03:39:45;93400.88;;;2.61;66.58
64402;BME280;50724;42.376;23.768;2023-04-28T03:42:45;93411.06;;;2.63;66.78
64402;BME280;50724;42.376;23.768;2023-04-28T03:45:46;93410.84;;;2.66;66.44
64402;BME280;50724;42.376;23.768;2023-04-28T03:48:46;93427.25;;;2.65;66.33
64402;BME280;50724;42.376;23.768;2023-04-28T03:51:47;93423.88;;;2.64;66.49
64402;BME280;50724;42.376;23.768;2023-04-28T03:54:47;93432.44;;;2.65;66.42
64402;BME280;50724;42.376;23.768;2023-04-28T03:58:05;93436.22;;;2.72;65.90
64402;BME280;50724;42.376;23.768;2023-04-28T04:01:05;93436.63;;;2.78;66.22
64402;BME280;50724;42.376;23.768;2023-04-28T04:04:06;93440.97;;;2.89;65.29
64402;BME280;50724;42.376;23.768;2023-04-28T04:07:06;93437.72;;;2.98;65.01
64402;BME280;50724;42.376;23.768;2023-04-28T04:10:07;93445.50;;;3.09;64.61
64402;BME280;50724;42.376;23.768;2023-04-28T04:13:08;93441.06;;;3.11;64.38
64402;BME280;50724;42.376;23.768;2023-04-28T04:16:08;93446.72;;;3.38;63.24
64402;BME280;50724;42.376;23.768;2023-04-28T04:19:09;93450.41;;;4.02;61.24
64402;BME280;50724;42.376;23.768;2023-04-28T04:22:09;93447.50;;;4.50;59.12
64402;BME280;50724;42.376;23.768;2023-04-28T04:25:09;93448.19;;;4.95;56.71
64402;BME280;50724;42.376;23.768;2023-04-28T04:28:10;93457.56;;;5.27;55.70
64402;BME280;50724;42.376;23.768;2023-04-28T04:31:10;93440.50;;;5.76;54.26
64402;BME280;50724;42.376;23.768;2023-04-28T04:34:11;93450.81;;;5.87;53.47
64402;BME280;50724;42.376;23.768;2023-04-28T04:37:11;93459.22;;;6.30;52.17
64402;BME280;50724;42.376;23.768;2023-04-28T04:40:12;93452.03;;;6.62;50.94
64402;BME280;50724;42.376;23.768;2023-04-28T04:43:12;93459.75;;;7.12;48.94
64402;BME280;50724;42.376;23.768;2023-04-28T04:46:13;93469.31;;;7.21;48.30
64402;BME280;50724;42.376;23.768;2023-04-28T04:49:13;93459.47;;;7.15;48.04
64402;BME280;50724;42.376;23.768;2023-04-28T04:52:14;93472.25;;;7.83;46.92
64402;BME280;50724;42.376;23.768;2023-04-28T04:55:14;93461.13;;;8.37;45.07
64402;BME280;50724;42.376;23.768;2023-04-28T04:58:15;93472.56;;;8.26;45.58
64402;BME280;50724;42.376;23.768;2023-04-28T05:01:15;93463.06;;;8.25;44.80
64402;BME280;50724;42.376;23.768;2023-04-28T05:04:16;93481.03;;;8.92;44.01
64402;BME280;50724;42.376;23.768;2023-04-28T05:07:16;93468.81;;;8.66;43.96
64402;BME280;50724;42.376;23.768;2023-04-28T05:10:16;93474.41;;;8.71;44.26
64402;BME280;50724;42.376;23.768;2023-04-28T05:13:17;93473.69;;;8.96;43.66
64402;BME280;50724;42.376;23.768;2023-04-28T05:16:17;93479.13;;;7.75;45.89
64402;BME280;50724;42.376;23.768;2023-04-28T05:19:18;93474.38;;;7.41;47.48
64402;BME280;50724;42.376;23.768;2023-04-28T05:22:18;93465.78;;;7.12;47.95
64402;BME280;50724;42.376;23.768;2023-04-28T05:25:19;93470.41;;;6.99;48.42
64402;BME280;50724;42.376;23.768;2023-04-28T05:28:19;93471.75;;;6.74;49.24
64402;BME280;50724;42.376;23.768;2023-04-28T05:31:21;93469.28;;;6.63;50.77
64402;BME280;50724;42.376;23.768;2023-04-28T05:34:21;93469.78;;;6.57;50.48
64402;BME280;50724;42.376;23.768;2023-04-28T05:37:22;93468.53;;;6.52;49.90
64402;BME280;50724;42.376;23.768;2023-04-28T05:40:22;93465.69;;;6.55;49.48
64402;BME280;50724;42.376;23.768;2023-04-28T05:43:22;93463.00;;;6.26;49.80
64402;BME280;50724;42.376;23.768;2023-04-28T05:46:23;93473.16;;;6.39;50.35
64402;BME280;50724;42.376;23.768;2023-04-28T05:49:23;93468.84;;;6.58;49.50
64402;BME280;50724;42.376;23.768;2023-04-28T05:52:24;93469.97;;;6.75;50.34
64402;BME280;50724;42.376;23.768;2023-04-28T05:55:24;93481.38;;;7.03;49.99
64402;BME280;50724;42.376;23.768;2023-04-28T05:58:25;93478.06;;;7.20;49.07
64402;BME280;50724;42.376;23.768;2023-04-28T06:01:25;93477.38;;;7.08;49.89
64402;BME280;50724;42.376;23.768;2023-04-28T06:04:26;93483.56;;;7.36;49.87
64402;BME280;50724;42.376;23.768;2023-04-28T06:07:26;93480.81;;;7.37;49.45
64402;BME280;50724;42.376;23.768;2023-04-28T06:10:26;93484.50;;;7.44;49.17
64402;BME280;50724;42.376;23.768;2023-04-28T06:13:27;93485.19;;;7.66;47.35
64402;BME280;50724;42.376;23.768;2023-04-28T06:16:27;93484.06;;;7.68;47.21
64402;BME280;50724;42.376;23.768;2023-04-28T06:19:28;93495.31;;;7.78;47.67
64402;BME280;50724;42.376;23.768;2023-04-28T06:22:29;93483.00;;;7.51;46.87
64402;BME280;50724;42.376;23.768;2023-04-28T06:25:29;93495.59;;;7.46;46.64
64402;BME280;50724;42.376;23.768;2023-04-28T06:28:30;93491.06;;;7.77;47.18
64402;BME280;50724;42.376;23.768;2023-04-28T06:31:31;93486.44;;;7.52;46.75
64402;BME280;50724;42.376;23.768;2023-04-28T06:34:31;93469.75;;;8.01;46.37
64402;BME280;50724;42.376;23.768;2023-04-28T06:37:32;93476.97;;;8.16;45.75
64402;BME280;50724;42.376;23.768;2023-04-28T06:40:41;93481.56;;;7.86;44.89
64402;BME280;50724;42.376;23.768;2023-04-28T06:43:42;93477.03;;;7.88;44.66
64402;BME280;50724;42.376;23.768;2023-04-28T06:46:43;93480.03;;;7.93;44.88
64402;BME280;50724;42.376;23.768;2023-04-28T06:49:43;93478.66;;;8.45;45.07
64402;BME280;50724;42.376;23.768;2023-04-28T06:52:46;93477.06;;;8.61;44.13
64402;BME280;50724;42.376;23.768;2023-04-28T06:55:47;93478.63;;;8.54;44.37
64402;BME280;50724;42.376;23.768;2023-04-28T06:58:47;93483.38;;;8.59;43.43
64402;BME280;50724;42.376;23.768;2023-04-28T07:01:48;93489.34;;;8.78;43.16
64402;BME280;50724;42.376;23.768;2023-04-28T07:04:48;93463.22;;;9.06;43.88
64402;BME280;50724;42.376;23.768;2023-04-28T07:08:10;93475.06;;;9.00;43.34
64402;BME280;50724;42.376;23.768;2023-04-28T07:11:21;93479.16;;;9.20;42.33
64402;BME280;50724;42.376;23.768;2023-04-28T07:14:22;93474.94;;;9.37;42.37
64402;BME280;50724;42.376;23.768;2023-04-28T07:17:23;93472.47;;;8.73;42.34
64402;BME280;50724;42.376;23.768;2023-04-28T07:20:23;93466.78;;;8.32;43.62
64402;BME280;50724;42.376;23.768;2023-04-28T07:23:24;93476.56;;;9.03;42.76
64402;BME280;50724;42.376;23.768;2023-04-28T07:26:24;93474.56;;;9.32;42.26
64402;BME280;50724;42.376;23.768;2023-04-28T07:29:25;93470.31;;;9.13;42.14
64402;BME280;50724;42.376;23.768;2023-04-28T07:32:28;93472.66;;;8.89;43.08
64402;BME280;50724;42.376;23.768;2023-04-28T07:35:28;93467.66;;;8.78;43.46
64402;BME280;50724;42.376;23.768;2023-04-28T07:38:29;93466.69;;;8.96;43.14
64402;BME280;50724;42.376;23.768;2023-04-28T07:41:29;93472.81;;;9.40;43.92
64402;BME280;50724;42.376;23.768;2023-04-28T07:44:30;93470.13;;;9.67;41.91
64402;BME280;50724;42.376;23.768;2023-04-28T07:47:30;93470.97;;;9.33;42.23
64402;BME280;50724;42.376;23.768;2023-04-28T07:50:31;93465.66;;;9.60;42.31
64402;BME280;50724;42.376;23.768;2023-04-28T07:53:32;93459.81;;;10.35;42.99
64402;BME280;50724;42.376;23.768;2023-04-28T07:56:33;93467.84;;;10.83;41.62
64402;BME280;50724;42.376;23.768;2023-04-28T07:59:33;93469.16;;;10.12;40.58
64402;BME280;50724;42.376;23.768;2023-04-28T08:02:34;93453.03;;;9.99;41.63
64402;BME280;50724;42.376;23.768;2023-04-28T08:05:34;93461.00;;;10.49;40.83
64402;BME280;50724;42.376;23.768;2023-04-28T08:08:35;93467.56;;;10.53;41.60
64402;BME280;50724;42.376;23.768;2023-04-28T08:11:35;93468.19;;;10.47;41.19
64402;BME280;50724;42.376;23.768;2023-04-28T08:14:36;93475.44;;;10.61;40.95
64402;BME280;50724;42.376;23.768;2023-04-28T08:17:36;93446.03;;;10.25;41.86
64402;BME280;50724;42.376;23.768;2023-04-28T08:20:37;93453.09;;;11.40;41.07
64402;BME280;50724;42.376;23.768;2023-04-28T08:23:37;93458.63;;;11.13;40.83
64402;BME280;50724;42.376;23.768;2023-04-28T08:26:38;93452.63;;;11.37;39.12
64402;BME280;50724;42.376;23.768;2023-04-28T08:29:38;93446.34;;;11.14;38.67
64402;BME280;50724;42.376;23.768;2023-04-28T08:32:39;93453.63;;;10.36;40.08
64402;BME280;50724;42.376;23.768;2023-04-28T08:35:40;93449.50;;;10.08;40.83
64402;BME280;50724;42.376;23.768;2023-04-28T08:38:40;93443.50;;;9.90;41.50
64402;BME280;50724;42.376;23.768;2023-04-28T08:41:41;93430.53;;;9.80;42.05
64402;BME280;50724;42.376;23.768;2023-04-28T08:44:41;93432.66;;;10.70;42.84
64402;BME280;50724;42.376;23.768;2023-04-28T08:47:42;93430.63;;;10.56;40.49
64402;BME280;50724;42.376;23.768;2023-04-28T08:50:49;93429.91;;;10.38;41.54
64402;BME280;50724;42.376;23.768;2023-04-28T08:53:53;93429.16;;;11.19;40.73
64402;BME280;50724;42.376;23.768;2023-04-28T08:57:02;93429.94;;;10.95;39.81
64402;BME280;50724;42.376;23.768;2023-04-28T09:00:04;93436.22;;;11.27;40.57
64402;BME280;50724;42.376;23.768;2023-04-28T09:03:05;93433.50;;;11.77;40.24
64402;BME280;50724;42.376;23.768;2023-04-28T09:06:05;93427.38;;;11.20;37.77
64402;BME280;50724;42.376;23.768;2023-04-28T09:09:25;93428.84;;;11.30;38.25
64402;BME280;50724;42.376;23.768;2023-04-28T09:12:35;93421.84;;;11.95;40.43
64402;BME280;50724;42.376;23.768;2023-04-28T09:15:37;93418.41;;;11.46;39.43
64402;BME280;50724;42.376;23.768;2023-04-28T09:18:54;93413.81;;;11.72;38.13
64402;BME280;50724;42.376;23.768;2023-04-28T09:21:56;93416.25;;;11.34;37.14
64402;BME280;50724;42.376;23.768;2023-04-28T09:24:56;93410.53;;;11.95;38.78
64402;BME280;50724;42.376;23.768;2023-04-28T09:28:22;93397.25;;;12.04;38.12
64402;BME280;50724;42.376;23.768;2023-04-28T09:31:24;93406.78;;;11.65;39.79
64402;BME280;50724;42.376;23.768;2023-04-28T09:34:24;93402.84;;;11.85;37.15
64402;BME280;50724;42.376;23.768;2023-04-28T09:37:33;93395.31;;;11.58;38.16
64402;BME280;50724;42.376;23.768;2023-04-28T09:40:48;93378.56;;;11.99;38.75
64402;BME280;50724;42.376;23.768;2023-04-28T09:43:49;93385.50;;;11.76;37.68
64402;BME280;50724;42.376;23.768;2023-04-28T09:46:50;93393.19;;;11.86;37.41
64402;BME280;50724;42.376;23.768;2023-04-28T09:49:55;93386.78;;;12.43;37.99
64402;BME280;50724;42.376;23.768;2023-04-28T09:52:56;93381.00;;;12.09;36.42
64402;BME280;50724;42.376;23.768;2023-04-28T09:55:59;93377.25;;;12.03;37.82
64402;BME280;50724;42.376;23.768;2023-04-28T09:59:00;93378.31;;;12.64;36.29
64402;BME280;50724;42.376;23.768;2023-04-28T10:02:04;93374.63;;;12.11;36.35
64402;BME280;50724;42.376;23.768;2023-04-28T10:05:05;93375.63;;;12.49;35.59
64402;BME280;50724;42.376;23.768;2023-04-28T10:08:10;93362.78;;;12.15;35.66
64402;BME280;50724;42.376;23.768;2023-04-28T10:11:11;93363.63;;;12.85;36.23
64402;BME280;50724;42.376;23.768;2023-04-28T10:14:12;93371.44;;;12.93;34.61
64402;BME280;50724;42.376;23.768;2023-04-28T10:17:13;93360.69;;;12.50;34.61
64402;BME280;50724;42.376;23.768;2023-04-28T10:20:17;93363.81;;;12.45;34.44
64402;BME280;50724;42.376;23.768;2023-04-28T10:27:10;93360.88;;;12.79;33.52
64402;BME280;50724;42.376;23.768;2023-04-28T10:36:47;93357.53;;;12.85;36.15
64402;BME280;50724;42.376;23.768;2023-04-28T10:40:39;93363.69;;;13.00;32.96
64402;BME280;50724;42.376;23.768;2023-04-28T10:43:40;93346.91;;;12.78;35.65
64402;BME280;50724;42.376;23.768;2023-04-28T10:53:02;93338.69;;;13.12;33.78
64402;BME280;50724;42.376;23.768;2023-04-28T10:56:06;93339.34;;;13.51;33.33
64402;BME280;50724;42.376;23.768;2023-04-28T10:59:25;93331.97;;;13.69;34.16
64402;BME280;50724;42.376;23.768;2023-04-28T11:02:36;93320.66;;;13.98;34.58
64402;BME280;50724;42.376;23.768;2023-04-28T11:06:16;93334.25;;;13.35;32.27
64402;BME280;50724;42.376;23.768;2023-04-28T11:12:18;93330.88;;;13.27;33.22
64402;BME280;50724;42.376;23.768;2023-04-28T11:15:19;93331.13;;;13.54;33.78
64402;BME280;50724;42.376;23.768;2023-04-28T11:18:20;93325.50;;;13.20;34.07
64402;BME280;50724;42.376;23.768;2023-04-28T11:21:24;93314.94;;;13.28;32.45
64402;BME280;50724;42.376;23.768;2023-04-28T11:24:33;93319.84;;;13.46;32.75
64402;BME280;50724;42.376;23.768;2023-04-28T11:27:34;93321.50;;;13.47;32.25
64402;BME280;50724;42.376;23.768;2023-04-28T11:30:35;93318.66;;;13.71;33.82
64402;BME280;50724;42.376;23.768;2023-04-28T11:33:36;93320.38;;;13.93;31.48
64402;BME280;50724;42.376;23.768;2023-04-28T11:36:38;93320.13;;;14.17;32.51
64402;BME280;50724;42.376;23.768;2023-04-28T11:39:39;93296.81;;;14.14;32.09
64402;BME280;50724;42.376;23.768;2023-04-28T11:42:49;93293.53;;;13.98;32.69
64402;BME280;50724;42.376;23.768;2023-04-28T11:45:50;93309.91;;;14.37;31.52
64402;BME280;50724;42.376;23.768;2023-04-28T11:49:02;93297.25;;;14.47;32.58
64402;BME280;50724;42.376;23.768;2023-04-28T11:52:05;93302.34;;;14.49;32.09
64402;BME280;50724;42.376;23.768;2023-04-28T11:55:06;93284.47;;;14.29;31.58
64402;BME280;50724;42.376;23.768;2023-04-28T11:58:19;93297.25;;;14.47;32.17
64402;BME280;50724;42.376;23.768;2023-04-28T12:01:23;93282.88;;;12.87;32.79
64402;BME280;50724;42.376;23.768;2023-04-28T12:04:28;93287.94;;;13.20;34.35
64402;BME280;50724;42.376;23.768;2023-04-28T12:07:41;93281.66;;;14.31;32.76
64402;BME280;50724;42.376;23.768;2023-04-28T12:10:43;93285.72;;;14.19;32.02
64402;BME280;50724;42.376;23.768;2023-04-28T12:14:05;93268.53;;;14.67;31.86
64402;BME280;50724;42.376;23.768;2023-04-28T12:17:05;93258.00;;;14.88;30.53
64402;BME280;50724;42.376;23.768;2023-04-28T12:20:10;93260.75;;;14.80;30.53
64402;BME280;50724;42.376;23.768;2023-04-28T12:23:11;93251.41;;;15.20;31.57
64402;BME280;50724;42.376;23.768;2023-04-28T12:26:12;93246.53;;;14.95;30.84
64402;BME280;50724;42.376;23.768;2023-04-28T12:29:35;93236.88;;;15.02;30.22
64402;BME280;50724;42.376;23.768;2023-04-28T12:32:39;93249.16;;;14.24;31.44
64402;BME280;50724;42.376;23.768;2023-04-28T12:35:40;93241.41;;;14.01;30.73
64402;BME280;50724;42.376;23.768;2023-04-28T12:38:47;93243.34;;;14.28;30.50
64402;BME280;50724;42.376;23.768;2023-04-28T12:41:48;93231.72;;;14.52;28.90
64402;BME280;50724;42.376;23.768;2023-04-28T12:44:48;93225.63;;;14.94;29.08
64402;BME280;50724;42.376;23.768;2023-04-28T12:47:49;93223.13;;;15.28;29.82
64402;BME280;50724;42.376;23.768;2023-04-28T12:50:50;93233.84;;;14.63;29.28
64402;BME280;50724;42.376;23.768;2023-04-28T12:53:51;93222.19;;;14.01;29.65
64402;BME280;50724;42.376;23.768;2023-04-28T12:56:51;93219.69;;;14.85;29.67
64402;BME280;50724;42.376;23.768;2023-04-28T12:59:53;93225.47;;;14.95;28.70
64402;BME280;50724;42.376;23.768;2023-04-28T13:02:55;93217.69;;;14.30;29.36
64402;BME280;50724;42.376;23.768;2023-04-28T13:05:55;93215.47;;;13.98;30.53
64402;BME280;50724;42.376;23.768;2023-04-28T13:08:56;93232.63;;;14.09;30.11
64402;BME280;50724;42.376;23.768;2023-04-28T13:11:56;93218.44;;;14.60;29.55
64402;BME280;50724;42.376;23.768;2023-04-28T13:14:57;93219.22;;;15.03;30.21
64402;BME280;50724;42.376;23.768;2023-04-28T13:17:59;93219.31;;;15.09;28.40
64402;BME280;50724;42.376;23.768;2023-04-28T13:21:00;93223.50;;;14.40;29.26
64402;BME280;50724;42.376;23.768;2023-04-28T13:24:01;93204.56;;;14.52;29.67
64402;BME280;50724;42.376;23.768;2023-04-28T13:27:02;93215.88;;;14.16;29.34
64402;BME280;50724;42.376;23.768;2023-04-28T13:30:03;93219.19;;;14.18;29.78
64402;BME280;50724;42.376;23.768;2023-04-28T13:33:04;93221.41;;;14.21;29.97
64402;BME280;50724;42.376;23.768;2023-04-28T13:36:05;93200.81;;;14.25;29.95
64402;BME280;50724;42.376;23.768;2023-04-28T13:39:07;93220.56;;;14.50;30.01
64402;BME280;50724;42.376;23.768;2023-04-28T13:42:10;93209.78;;;14.45;31.31
64402;BME280;50724;42.376;23.768;2023-04-28T13:45:12;93213.19;;;14.10;30.29
64402;BME280;50724;42.376;23.768;2023-04-28T13:48:12;93217.19;;;13.91;30.30
64402;BME280;50724;42.376;23.768;2023-04-28T13:51:13;93213.97;;;14.25;30.92
64402;BME280;50724;42.376;23.768;2023-04-28T13:54:13;93217.78;;;14.37;30.80
64402;BME280;50724;42.376;23.768;2023-04-28T13:57:14;93219.53;;;14.30;30.17
64402;BME280;50724;42.376;23.768;2023-04-28T14:00:14;93196.56;;;14.60;29.10
64402;BME280;50724;42.376;23.768;2023-04-28T14:03:15;93206.56;;;14.50;30.28
64402;BME280;50724;42.376;23.768;2023-04-28T14:06:15;93200.91;;;14.88;29.31
64402;BME280;50724;42.376;23.768;2023-04-28T14:09:16;93207.53;;;14.63;30.01
64402;BME280;50724;42.376;23.768;2023-04-28T14:12:16;93203.53;;;14.88;29.68
64402;BME280;50724;42.376;23.768;2023-04-28T14:15:17;93211.34;;;15.03;29.66
64402;BME280;50724;42.376;23.768;2023-04-28T14:18:17;93199.44;;;14.86;30.01
64402;BME280;50724;42.376;23.768;2023-04-28T14:21:17;93199.41;;;14.79;31.65
64402;BME280;50724;42.376;23.768;2023-04-28T14:24:18;93194.22;;;14.92;29.41
64402;BME280;50724;42.376;23.768;2023-04-28T14:27:19;93205.38;;;14.94;28.88
64402;BME280;50724;42.376;23.768;2023-04-28T14:30:21;93196.09;;;14.98;29.13
64402;BME280;50724;42.376;23.768;2023-04-28T14:33:21;93194.91;;;15.84;28.79
64402;BME280;50724;42.376;23.768;2023-04-28T14:36:22;93195.34;;;15.53;27.63
64402;BME280;50724;42.376;23.768;2023-04-28T14:39:22;93201.09;;;16.11;27.60
64402;BME280;50724;42.376;23.768;2023-04-28T14:42:31;93204.78;;;16.16;27.80
64402;BME280;50724;42.376;23.768;2023-04-28T14:45:32;93190.28;;;16.46;27.18
64402;BME280;50724;42.376;23.768;2023-04-28T14:48:35;93189.53;;;16.05;27.23
64402;BME280;50724;42.376;23.768;2023-04-28T14:51:35;93184.53;;;15.82;28.25
64402;BME280;50724;42.376;23.768;2023-04-28T14:54:36;93179.13;;;16.51;27.99
64402;BME280;50724;42.376;23.768;2023-04-28T14:57:36;93172.66;;;16.00;28.10
64402;BME280;50724;42.376;23.768;2023-04-28T15:00:37;93179.06;;;16.31;28.24
64402;BME280;50724;42.376;23.768;2023-04-28T15:03:38;93181.47;;;16.20;28.44
64402;BME280;50724;42.376;23.768;2023-04-28T15:06:38;93182.88;;;17.02;28.21
64402;BME280;50724;42.376;23.768;2023-04-28T15:09:39;93186.13;;;17.76;27.12
64402;BME280;50724;42.376;23.768;2023-04-28T15:12:39;93183.28;;;17.58;27.81
64402;BME280;50724;42.376;23.768;2023-04-28T15:15:41;93189.97;;;18.38;26.38
64402;BME280;50724;42.376;23.768;2023-04-28T15:18:41;93188.31;;;18.50;25.94
64402;BME280;50724;42.376;23.768;2023-04-28T15:21:43;93187.25;;;18.58;25.93
64402;BME280;50724;42.376;23.768;2023-04-28T15:24:44;93183.28;;;18.29;25.89
64402;BME280;50724;42.376;23.768;2023-04-28T15:27:44;93186.41;;;18.13;26.00
64402;BME280;50724;42.376;23.768;2023-04-28T15:30:46;93168.03;;;17.60;26.26
64402;BME280;50724;42.376;23.768;2023-04-28T15:33:46;93175.53;;;17.04;26.84
64402;BME280;50724;42.376;23.768;2023-04-28T15:36:56;93173.34;;;16.95;26.97
64402;BME280;50724;42.376;23.768;2023-04-28T15:39:56;93174.50;;;16.66;27.91
64402;BME280;50724;42.376;23.768;2023-04-28T15:42:57;93183.16;;;18.11;26.27
64402;BME280;50724;42.376;23.768;2023-04-28T15:45:58;93182.22;;;17.85;26.32
64402;BME280;50724;42.376;23.768;2023-04-28T15:48:58;93173.91;;;17.43;27.05
64402;BME280;50724;42.376;23.768;2023-04-28T15:51:59;93181.38;;;17.98;26.28
64402;BME280;50724;42.376;23.768;2023-04-28T15:54:59;93177.72;;;17.93;26.42
64402;BME280;50724;42.376;23.768;2023-04-28T15:58:00;93180.03;;;17.17;27.33
64402;BME280;50724;42.376;23.768;2023-04-28T16:01:01;93164.16;;;16.78;28.42
64402;BME280;50724;42.376;23.768;2023-04-28T16:04:02;93169.84;;;16.75;28.67
64402;BME280;50724;42.376;23.768;2023-04-28T16:07:02;93163.72;;;15.60;30.39
64402;BME280;50724;42.376;23.768;2023-04-28T16:10:04;93174.31;;;15.39;30.92
64402;BME280;50724;42.376;23.768;2023-04-28T16:13:05;93165.31;;;14.99;31.76
64402;BME280;50724;42.376;23.768;2023-04-28T16:16:10;93167.28;;;14.69;32.00
64402;BME280;50724;42.376;23.768;2023-04-28T16:19:11;93157.91;;;14.60;32.18